Blk Riv Falls, Wisconsin
Current Conditions -  °F | °C
As of 12:35 AM on Thursday 23 Oct 2014 (Local Time) from KBCK Reporting Station
Clear Clear  
Wind Chill: 39°   Ceiling: Unl
Heat Index: 39°   Visibility: 10mi
Dew Point: 35°   Wind: 3mph
Humidity: 84%   Direction: 110°ESE
Pressure: 30.13"   Gusts: NA
Location:  44.2819°N, 90.7695°W
Report Text: KBCK 230535Z AUTO 11003KT 10SM CLR 04/02 A3013 RMK AO2 T00400015
Loading
Personal Weather Stations






























Interactive Weather Map
Tropical Storm Tracking
New forecast layout! Learn more

10-Day Weather Forecast

Advertisements
Track Severe Weather on mobile